sensor_id;sensor_type;location;lat;lon;timestamp;temperature;humidity
39079;DHT22;24829;49.208;12.080;2023-12-20T00:02:18;2.40;99.90
39079;DHT22;24829;49.208;12.080;2023-12-20T00:04:44;2.40;99.90
39079;DHT22;24829;49.208;12.080;2023-12-20T00:07:09;2.40;99.90
39079;DHT22;24829;49.208;12.080;2023-12-20T00:09:35;2.40;99.90
39079;DHT22;24829;49.208;12.080;2023-12-20T00:12:00;2.40;99.90
39079;DHT22;24829;49.208;12.080;2023-12-20T00:14:26;2.40;99.90
39079;DHT22;24829;49.208;12.080;2023-12-20T00:16:52;2.30;99.90
39079;DHT22;24829;49.208;12.080;2023-12-20T00:19:17;2.30;99.90
39079;DHT22;24829;49.208;12.080;2023-12-20T00:21:43;2.30;99.90
39079;DHT22;24829;49.208;12.080;2023-12-20T00:24:08;2.30;99.90
39079;DHT22;24829;49.208;12.080;2023-12-20T00:26:34;2.30;99.90
39079;DHT22;24829;49.208;12.080;2023-12-20T00:29:00;2.40;99.90
39079;DHT22;24829;49.208;12.080;2023-12-20T00:31:25;2.30;99.90
39079;DHT22;24829;49.208;12.080;2023-12-20T00:33:52;2.30;99.90
39079;DHT22;24829;49.208;12.080;2023-12-20T00:36:17;2.30;99.90
39079;DHT22;24829;49.208;12.080;2023-12-20T00:38:43;2.30;99.90
39079;DHT22;24829;49.208;12.080;2023-12-20T00:41:09;2.30;99.90
39079;DHT22;24829;49.208;12.080;2023-12-20T00:43:34;2.30;99.90
39079;DHT22;24829;49.208;12.080;2023-12-20T00:46:00;2.30;99.90
39079;DHT22;24829;49.208;12.080;2023-12-20T00:48:26;2.40;99.90
39079;DHT22;24829;49.208;12.080;2023-12-20T00:50:55;2.40;99.90
39079;DHT22;24829;49.208;12.080;2023-12-20T00:53:21;2.40;99.90
39079;DHT22;24829;49.208;12.080;2023-12-20T00:55:47;2.30;99.90
39079;DHT22;24829;49.208;12.080;2023-12-20T00:58:12;2.40;99.90
39079;DHT22;24829;49.208;12.080;2023-12-20T01:00:40;2.30;99.90
39079;DHT22;24829;49.208;12.080;2023-12-20T01:03:07;2.40;99.90
39079;DHT22;24829;49.208;12.080;2023-12-20T01:05:33;2.40;99.90
39079;DHT22;24829;49.208;12.080;2023-12-20T01:07:58;2.40;99.90
39079;DHT22;24829;49.208;12.080;2023-12-20T01:10:24;2.40;99.90
39079;DHT22;24829;49.208;12.080;2023-12-20T01:12:53;2.40;99.90
39079;DHT22;24829;49.208;12.080;2023-12-20T01:15:19;2.40;99.90
39079;DHT22;24829;49.208;12.080;2023-12-20T01:17:44;2.40;99.90
39079;DHT22;24829;49.208;12.080;2023-12-20T01:20:10;2.40;99.90
39079;DHT22;24829;49.208;12.080;2023-12-20T01:22:36;2.40;99.90
39079;DHT22;24829;49.208;12.080;2023-12-20T01:25:02;2.40;99.90
39079;DHT22;24829;49.208;12.080;2023-12-20T01:27:28;2.30;99.90
39079;DHT22;24829;49.208;12.080;2023-12-20T01:29:53;2.30;99.90
39079;DHT22;24829;49.208;12.080;2023-12-20T01:32:19;2.30;99.90
39079;DHT22;24829;49.208;12.080;2023-12-20T01:34:45;2.30;99.90
39079;DHT22;24829;49.208;12.080;2023-12-20T01:37:11;2.30;99.90
39079;DHT22;24829;49.208;12.080;2023-12-20T01:39:36;2.40;99.90
39079;DHT22;24829;49.208;12.080;2023-12-20T01:42:02;2.40;99.90
39079;DHT22;24829;49.208;12.080;2023-12-20T01:44:28;2.40;99.90
39079;DHT22;24829;49.208;12.080;2023-12-20T01:46:54;2.40;99.90
39079;DHT22;24829;49.208;12.080;2023-12-20T01:49:20;2.40;99.90
39079;DHT22;24829;49.208;12.080;2023-12-20T01:51:47;2.50;99.90
39079;DHT22;24829;49.208;12.080;2023-12-20T01:54:13;2.50;99.90
39079;DHT22;24829;49.208;12.080;2023-12-20T01:56:39;2.50;99.90
39079;DHT22;24829;49.208;12.080;2023-12-20T01:59:06;2.50;99.90
39079;DHT22;24829;49.208;12.080;2023-12-20T02:01:32;2.50;99.90
39079;DHT22;24829;49.208;12.080;2023-12-20T02:03:59;2.60;99.90
39079;DHT22;24829;49.208;12.080;2023-12-20T02:06:29;2.60;99.90
39079;DHT22;24829;49.208;12.080;2023-12-20T02:08:57;2.60;99.90
39079;DHT22;24829;49.208;12.080;2023-12-20T02:11:23;2.70;99.90
39079;DHT22;24829;49.208;12.080;2023-12-20T02:13:50;2.70;99.90
39079;DHT22;24829;49.208;12.080;2023-12-20T02:16:16;2.70;99.90
39079;DHT22;24829;49.208;12.080;2023-12-20T02:18:43;2.80;99.90
39079;DHT22;24829;49.208;12.080;2023-12-20T02:21:10;2.70;99.90
39079;DHT22;24829;49.208;12.080;2023-12-20T02:23:36;2.70;99.90
39079;DHT22;24829;49.208;12.080;2023-12-20T02:26:02;2.60;99.90
39079;DHT22;24829;49.208;12.080;2023-12-20T02:28:29;2.60;99.90
39079;DHT22;24829;49.208;12.080;2023-12-20T02:30:55;2.60;99.90
39079;DHT22;24829;49.208;12.080;2023-12-20T02:33:20;2.60;99.90
39079;DHT22;24829;49.208;12.080;2023-12-20T02:35:46;2.50;99.90
39079;DHT22;24829;49.208;12.080;2023-12-20T02:38:12;2.50;99.90
39079;DHT22;24829;49.208;12.080;2023-12-20T02:40:38;2.60;99.90
39079;DHT22;24829;49.208;12.080;2023-12-20T02:43:03;2.60;99.90
39079;DHT22;24829;49.208;12.080;2023-12-20T02:45:29;2.60;99.90
39079;DHT22;24829;49.208;12.080;2023-12-20T02:47:55;2.70;99.90
39079;DHT22;24829;49.208;12.080;2023-12-20T02:50:21;2.70;99.90
39079;DHT22;24829;49.208;12.080;2023-12-20T02:52:47;2.70;99.90
39079;DHT22;24829;49.208;12.080;2023-12-20T02:55:13;2.70;99.90
39079;DHT22;24829;49.208;12.080;2023-12-20T02:57:38;2.70;99.90
39079;DHT22;24829;49.208;12.080;2023-12-20T03:00:08;2.80;99.90
39079;DHT22;24829;49.208;12.080;2023-12-20T03:02:34;2.80;99.90
39079;DHT22;24829;49.208;12.080;2023-12-20T03:05:00;2.80;99.90
39079;DHT22;24829;49.208;12.080;2023-12-20T03:07:26;2.80;99.90
39079;DHT22;24829;49.208;12.080;2023-12-20T03:09:52;2.90;99.90
39079;DHT22;24829;49.208;12.080;2023-12-20T03:12:18;2.90;99.90
39079;DHT22;24829;49.208;12.080;2023-12-20T03:14:44;2.90;99.90
39079;DHT22;24829;49.208;12.080;2023-12-20T03:17:10;3.00;99.90
39079;DHT22;24829;49.208;12.080;2023-12-20T03:19:35;2.90;99.90
39079;DHT22;24829;49.208;12.080;2023-12-20T03:22:01;2.90;99.90
39079;DHT22;24829;49.208;12.080;2023-12-20T03:24:27;2.90;99.90
39079;DHT22;24829;49.208;12.080;2023-12-20T03:26:53;3.00;99.90
39079;DHT22;24829;49.208;12.080;2023-12-20T03:29:18;3.00;99.90
39079;DHT22;24829;49.208;12.080;2023-12-20T03:31:44;2.90;99.90
39079;DHT22;24829;49.208;12.080;2023-12-20T03:34:11;2.80;99.90
39079;DHT22;24829;49.208;12.080;2023-12-20T03:36:36;2.80;99.90
39079;DHT22;24829;49.208;12.080;2023-12-20T03:39:02;2.80;99.90
39079;DHT22;24829;49.208;12.080;2023-12-20T03:41:28;2.70;99.90
39079;DHT22;24829;49.208;12.080;2023-12-20T03:43:53;2.60;99.90
39079;DHT22;24829;49.208;12.080;2023-12-20T03:46:19;2.70;99.90
39079;DHT22;24829;49.208;12.080;2023-12-20T03:48:45;2.70;99.90
39079;DHT22;24829;49.208;12.080;2023-12-20T03:51:10;2.70;99.90
39079;DHT22;24829;49.208;12.080;2023-12-20T03:53:36;2.70;99.90
39079;DHT22;24829;49.208;12.080;2023-12-20T03:56:02;2.80;99.90
39079;DHT22;24829;49.208;12.080;2023-12-20T03:58:28;2.70;99.90
39079;DHT22;24829;49.208;12.080;2023-12-20T04:00:53;2.80;99.90
39079;DHT22;24829;49.208;12.080;2023-12-20T04:03:19;2.80;99.90
39079;DHT22;24829;49.208;12.080;2023-12-20T04:05:45;2.80;99.90
39079;DHT22;24829;49.208;12.080;2023-12-20T04:08:11;2.80;99.90
39079;DHT22;24829;49.208;12.080;2023-12-20T04:10:36;2.80;99.90
39079;DHT22;24829;49.208;12.080;2023-12-20T04:13:03;2.90;99.90
39079;DHT22;24829;49.208;12.080;2023-12-20T04:15:29;2.90;99.90
39079;DHT22;24829;49.208;12.080;2023-12-20T04:17:54;3.00;99.90
39079;DHT22;24829;49.208;12.080;2023-12-20T04:20:20;3.00;99.90
39079;DHT22;24829;49.208;12.080;2023-12-20T04:22:45;3.00;99.90
39079;DHT22;24829;49.208;12.080;2023-12-20T04:25:11;3.00;99.90
39079;DHT22;24829;49.208;12.080;2023-12-20T04:27:37;3.10;99.90
39079;DHT22;24829;49.208;12.080;2023-12-20T04:30:03;3.10;99.90
39079;DHT22;24829;49.208;12.080;2023-12-20T04:32:29;3.20;99.90
39079;DHT22;24829;49.208;12.080;2023-12-20T04:34:54;3.20;99.90
39079;DHT22;24829;49.208;12.080;2023-12-20T04:37:20;3.30;99.90
39079;DHT22;24829;49.208;12.080;2023-12-20T04:39:46;3.40;99.90
39079;DHT22;24829;49.208;12.080;2023-12-20T04:42:12;3.40;99.90
39079;DHT22;24829;49.208;12.080;2023-12-20T04:44:37;3.40;99.90
39079;DHT22;24829;49.208;12.080;2023-12-20T04:47:03;3.40;99.90
39079;DHT22;24829;49.208;12.080;2023-12-20T04:49:29;3.40;99.90
39079;DHT22;24829;49.208;12.080;2023-12-20T04:51:54;3.40;99.90
39079;DHT22;24829;49.208;12.080;2023-12-20T04:54:21;3.40;99.90
39079;DHT22;24829;49.208;12.080;2023-12-20T04:56:46;3.40;99.90
39079;DHT22;24829;49.208;12.080;2023-12-20T04:59:12;3.40;99.90
39079;DHT22;24829;49.208;12.080;2023-12-20T05:01:38;3.30;99.90
39079;DHT22;24829;49.208;12.080;2023-12-20T05:04:04;3.30;99.90
39079;DHT22;24829;49.208;12.080;2023-12-20T05:06:30;3.20;99.90
39079;DHT22;24829;49.208;12.080;2023-12-20T05:08:55;3.10;99.90
39079;DHT22;24829;49.208;12.080;2023-12-20T05:11:21;3.00;99.90
39079;DHT22;24829;49.208;12.080;2023-12-20T05:13:47;3.00;99.90
39079;DHT22;24829;49.208;12.080;2023-12-20T05:16:13;3.00;99.90
39079;DHT22;24829;49.208;12.080;2023-12-20T05:18:40;3.00;99.90
39079;DHT22;24829;49.208;12.080;2023-12-20T05:21:05;3.00;99.90
39079;DHT22;24829;49.208;12.080;2023-12-20T05:23:31;3.00;99.90
39079;DHT22;24829;49.208;12.080;2023-12-20T05:25:57;3.00;99.90
39079;DHT22;24829;49.208;12.080;2023-12-20T05:28:22;3.00;99.90
39079;DHT22;24829;49.208;12.080;2023-12-20T05:30:48;3.00;99.90
39079;DHT22;24829;49.208;12.080;2023-12-20T05:33:14;3.00;99.90
39079;DHT22;24829;49.208;12.080;2023-12-20T05:35:39;3.00;99.90
39079;DHT22;24829;49.208;12.080;2023-12-20T05:38:05;2.90;99.90
39079;DHT22;24829;49.208;12.080;2023-12-20T05:40:31;2.90;99.90
39079;DHT22;24829;49.208;12.080;2023-12-20T05:42:57;2.90;99.90
39079;DHT22;24829;49.208;12.080;2023-12-20T05:45:22;2.90;99.90
39079;DHT22;24829;49.208;12.080;2023-12-20T05:47:48;2.90;99.90
39079;DHT22;24829;49.208;12.080;2023-12-20T05:50:13;2.90;99.90
39079;DHT22;24829;49.208;12.080;2023-12-20T05:52:39;2.90;99.90
39079;DHT22;24829;49.208;12.080;2023-12-20T05:55:05;2.90;99.90
39079;DHT22;24829;49.208;12.080;2023-12-20T05:57:30;3.00;99.90
39079;DHT22;24829;49.208;12.080;2023-12-20T05:59:56;3.00;99.90
39079;DHT22;24829;49.208;12.080;2023-12-20T06:02:22;3.10;99.90
39079;DHT22;24829;49.208;12.080;2023-12-20T06:04:47;3.10;99.90
39079;DHT22;24829;49.208;12.080;2023-12-20T06:07:14;3.10;99.90
39079;DHT22;24829;49.208;12.080;2023-12-20T06:09:39;3.10;99.90
39079;DHT22;24829;49.208;12.080;2023-12-20T06:12:05;3.10;99.90
39079;DHT22;24829;49.208;12.080;2023-12-20T06:14:31;3.10;99.90
39079;DHT22;24829;49.208;12.080;2023-12-20T06:16:57;3.10;99.90
39079;DHT22;24829;49.208;12.080;2023-12-20T06:19:23;3.10;99.90
39079;DHT22;24829;49.208;12.080;2023-12-20T06:21:48;3.10;99.90
39079;DHT22;24829;49.208;12.080;2023-12-20T06:24:14;3.10;99.90
39079;DHT22;24829;49.208;12.080;2023-12-20T06:26:40;3.00;99.90
39079;DHT22;24829;49.208;12.080;2023-12-20T06:29:05;3.00;99.90
39079;DHT22;24829;49.208;12.080;2023-12-20T06:31:31;3.00;99.90
39079;DHT22;24829;49.208;12.080;2023-12-20T06:33:58;2.90;99.90
39079;DHT22;24829;49.208;12.080;2023-12-20T06:36:25;2.90;99.90
39079;DHT22;24829;49.208;12.080;2023-12-20T06:38:51;2.90;99.90
39079;DHT22;24829;49.208;12.080;2023-12-20T06:41:17;2.90;99.90
39079;DHT22;24829;49.208;12.080;2023-12-20T06:43:43;2.90;99.90
39079;DHT22;24829;49.208;12.080;2023-12-20T06:46:08;3.00;99.90
39079;DHT22;24829;49.208;12.080;2023-12-20T06:48:34;3.00;99.90
39079;DHT22;24829;49.208;12.080;2023-12-20T06:51:01;3.00;99.90
39079;DHT22;24829;49.208;12.080;2023-12-20T06:53:29;3.00;99.90
39079;DHT22;24829;49.208;12.080;2023-12-20T06:55:55;3.10;99.90
39079;DHT22;24829;49.208;12.080;2023-12-20T06:58:22;3.10;99.90
39079;DHT22;24829;49.208;12.080;2023-12-20T07:00:47;3.20;99.90
39079;DHT22;24829;49.208;12.080;2023-12-20T07:03:13;3.20;99.90
39079;DHT22;24829;49.208;12.080;2023-12-20T07:05:39;3.20;99.90
39079;DHT22;24829;49.208;12.080;2023-12-20T07:08:05;3.30;99.90
39079;DHT22;24829;49.208;12.080;2023-12-20T07:10:30;3.20;99.90
39079;DHT22;24829;49.208;12.080;2023-12-20T07:12:56;3.30;99.90
39079;DHT22;24829;49.208;12.080;2023-12-20T07:15:22;3.30;99.90
39079;DHT22;24829;49.208;12.080;2023-12-20T07:17:48;3.40;99.90
39079;DHT22;24829;49.208;12.080;2023-12-20T07:20:14;3.50;99.90
39079;DHT22;24829;49.208;12.080;2023-12-20T07:22:39;3.50;99.90
39079;DHT22;24829;49.208;12.080;2023-12-20T07:25:05;3.50;99.90
39079;DHT22;24829;49.208;12.080;2023-12-20T07:27:31;3.50;99.90
39079;DHT22;24829;49.208;12.080;2023-12-20T07:29:57;3.50;99.90
39079;DHT22;24829;49.208;12.080;2023-12-20T07:32:22;3.50;99.90
39079;DHT22;24829;49.208;12.080;2023-12-20T07:34:48;3.50;99.90
39079;DHT22;24829;49.208;12.080;2023-12-20T07:37:13;3.50;99.90
39079;DHT22;24829;49.208;12.080;2023-12-20T07:39:40;3.50;99.90
39079;DHT22;24829;49.208;12.080;2023-12-20T07:42:06;3.40;99.90
39079;DHT22;24829;49.208;12.080;2023-12-20T07:44:31;3.30;99.90
39079;DHT22;24829;49.208;12.080;2023-12-20T07:46:57;3.20;99.90
39079;DHT22;24829;49.208;12.080;2023-12-20T07:49:23;3.20;99.90
39079;DHT22;24829;49.208;12.080;2023-12-20T07:51:49;3.10;99.90
39079;DHT22;24829;49.208;12.080;2023-12-20T07:54:15;3.20;99.90
39079;DHT22;24829;49.208;12.080;2023-12-20T07:56:41;3.20;99.90
39079;DHT22;24829;49.208;12.080;2023-12-20T07:59:07;3.20;99.90
39079;DHT22;24829;49.208;12.080;2023-12-20T08:01:32;3.20;99.90
39079;DHT22;24829;49.208;12.080;2023-12-20T08:03:58;3.30;99.90
39079;DHT22;24829;49.208;12.080;2023-12-20T08:06:23;3.30;99.90
39079;DHT22;24829;49.208;12.080;2023-12-20T08:08:49;3.30;99.90
39079;DHT22;24829;49.208;12.080;2023-12-20T08:11:15;3.40;99.90
39079;DHT22;24829;49.208;12.080;2023-12-20T08:13:40;3.40;99.90
39079;DHT22;24829;49.208;12.080;2023-12-20T08:16:06;3.40;99.90
39079;DHT22;24829;49.208;12.080;2023-12-20T08:18:32;3.50;99.90
39079;DHT22;24829;49.208;12.080;2023-12-20T08:20:57;3.50;99.90
39079;DHT22;24829;49.208;12.080;2023-12-20T08:23:23;3.60;99.90
39079;DHT22;24829;49.208;12.080;2023-12-20T08:25:49;3.60;99.90
39079;DHT22;24829;49.208;12.080;2023-12-20T08:28:15;3.60;99.90
39079;DHT22;24829;49.208;12.080;2023-12-20T08:30:40;3.60;99.90
39079;DHT22;24829;49.208;12.080;2023-12-20T08:33:06;3.70;99.90
39079;DHT22;24829;49.208;12.080;2023-12-20T08:35:38;3.70;99.90
39079;DHT22;24829;49.208;12.080;2023-12-20T08:38:05;3.70;99.90
39079;DHT22;24829;49.208;12.080;2023-12-20T08:40:30;3.70;99.90
39079;DHT22;24829;49.208;12.080;2023-12-20T08:42:56;3.70;99.90
39079;DHT22;24829;49.208;12.080;2023-12-20T08:45:21;3.80;99.90
39079;DHT22;24829;49.208;12.080;2023-12-20T08:47:47;3.90;99.90
39079;DHT22;24829;49.208;12.080;2023-12-20T08:50:13;3.90;99.90
39079;DHT22;24829;49.208;12.080;2023-12-20T08:52:38;3.90;99.90
39079;DHT22;24829;49.208;12.080;2023-12-20T08:55:04;3.90;99.90
39079;DHT22;24829;49.208;12.080;2023-12-20T08:57:30;3.90;99.90
39079;DHT22;24829;49.208;12.080;2023-12-20T08:59:57;3.80;99.90
39079;DHT22;24829;49.208;12.080;2023-12-20T09:02:23;3.70;99.90
39079;DHT22;24829;49.208;12.080;2023-12-20T09:04:48;3.80;99.90
39079;DHT22;24829;49.208;12.080;2023-12-20T09:07:26;3.80;99.90
39079;DHT22;24829;49.208;12.080;2023-12-20T09:09:53;3.90;99.90
39079;DHT22;24829;49.208;12.080;2023-12-20T09:12:19;3.90;99.90
39079;DHT22;24829;49.208;12.080;2023-12-20T09:14:46;3.90;99.90
39079;DHT22;24829;49.208;12.080;2023-12-20T09:17:12;4.00;99.90
39079;DHT22;24829;49.208;12.080;2023-12-20T09:19:38;4.00;99.90
39079;DHT22;24829;49.208;12.080;2023-12-20T09:22:05;3.90;99.90
39079;DHT22;24829;49.208;12.080;2023-12-20T09:24:31;4.00;99.90
39079;DHT22;24829;49.208;12.080;2023-12-20T09:26:56;4.00;99.90
39079;DHT22;24829;49.208;12.080;2023-12-20T09:29:23;4.00;99.90
39079;DHT22;24829;49.208;12.080;2023-12-20T09:31:48;4.00;99.90
39079;DHT22;24829;49.208;12.080;2023-12-20T09:34:15;4.10;99.90
39079;DHT22;24829;49.208;12.080;2023-12-20T09:36:42;4.10;99.90
39079;DHT22;24829;49.208;12.080;2023-12-20T09:39:17;4.20;99.90
39079;DHT22;24829;49.208;12.080;2023-12-20T09:42:01;4.20;99.90
39079;DHT22;24829;49.208;12.080;2023-12-20T09:44:28;4.20;99.90
39079;DHT22;24829;49.208;12.080;2023-12-20T09:46:55;4.20;99.90
39079;DHT22;24829;49.208;12.080;2023-12-20T09:49:21;4.20;99.90
39079;DHT22;24829;49.208;12.080;2023-12-20T09:51:47;4.30;99.90
39079;DHT22;24829;49.208;12.080;2023-12-20T09:54:20;4.30;99.90
39079;DHT22;24829;49.208;12.080;2023-12-20T09:56:46;4.30;99.90
39079;DHT22;24829;49.208;12.080;2023-12-20T09:59:13;4.30;99.90
39079;DHT22;24829;49.208;12.080;2023-12-20T10:01:40;4.40;99.90
39079;DHT22;24829;49.208;12.080;2023-12-20T10:04:07;4.40;99.90
39079;DHT22;24829;49.208;12.080;2023-12-20T10:06:43;4.40;99.90
39079;DHT22;24829;49.208;12.080;2023-12-20T10:09:10;4.40;99.90
39079;DHT22;24829;49.208;12.080;2023-12-20T10:11:37;4.40;99.90
39079;DHT22;24829;49.208;12.080;2023-12-20T10:14:10;4.40;99.90
39079;DHT22;24829;49.208;12.080;2023-12-20T10:16:35;4.60;99.90
39079;DHT22;24829;49.208;12.080;2023-12-20T10:19:01;4.60;99.90
39079;DHT22;24829;49.208;12.080;2023-12-20T10:21:27;4.60;99.90
39079;DHT22;24829;49.208;12.080;2023-12-20T10:23:56;4.70;99.90
39079;DHT22;24829;49.208;12.080;2023-12-20T10:26:23;4.70;99.90
39079;DHT22;24829;49.208;12.080;2023-12-20T10:28:56;4.70;99.90
39079;DHT22;24829;49.208;12.080;2023-12-20T10:31:32;4.80;99.90
39079;DHT22;24829;49.208;12.080;2023-12-20T10:33:59;4.90;99.90
39079;DHT22;24829;49.208;12.080;2023-12-20T10:36:26;5.00;99.90
39079;DHT22;24829;49.208;12.080;2023-12-20T10:38:55;4.90;99.90
39079;DHT22;24829;49.208;12.080;2023-12-20T10:41:29;4.90;99.90
39079;DHT22;24829;49.208;12.080;2023-12-20T10:44:02;4.90;99.90
39079;DHT22;24829;49.208;12.080;2023-12-20T10:46:29;4.90;99.90
39079;DHT22;24829;49.208;12.080;2023-12-20T10:48:56;4.90;99.90
39079;DHT22;24829;49.208;12.080;2023-12-20T10:51:23;4.90;99.90
39079;DHT22;24829;49.208;12.080;2023-12-20T10:53:50;5.00;99.90
39079;DHT22;24829;49.208;12.080;2023-12-20T10:56:19;5.10;99.90
39079;DHT22;24829;49.208;12.080;2023-12-20T10:58:47;5.10;99.90
39079;DHT22;24829;49.208;12.080;2023-12-20T11:01:19;5.20;99.90
39079;DHT22;24829;49.208;12.080;2023-12-20T11:09:31;5.20;99.90
39079;DHT22;24829;49.208;12.080;2023-12-20T11:14:55;5.30;99.90
39079;DHT22;24829;49.208;12.080;2023-12-20T11:17:22;5.40;99.90
39079;DHT22;24829;49.208;12.080;2023-12-20T11:22:25;5.50;99.90
39079;DHT22;24829;49.208;12.080;2023-12-20T11:24:52;5.50;99.90
39079;DHT22;24829;49.208;12.080;2023-12-20T11:27:19;5.50;99.90
39079;DHT22;24829;49.208;12.080;2023-12-20T11:29:52;5.50;99.90
39079;DHT22;24829;49.208;12.080;2023-12-20T11:37:37;5.40;99.90
39079;DHT22;24829;49.208;12.080;2023-12-20T11:40:06;5.30;99.90
39079;DHT22;24829;49.208;12.080;2023-12-20T11:42:41;5.30;99.90
39079;DHT22;24829;49.208;12.080;2023-12-20T11:45:11;5.20;99.90
39079;DHT22;24829;49.208;12.080;2023-12-20T11:47:37;5.20;99.90
39079;DHT22;24829;49.208;12.080;2023-12-20T11:50:03;5.20;99.90
39079;DHT22;24829;49.208;12.080;2023-12-20T11:52:29;5.10;99.90
39079;DHT22;24829;49.208;12.080;2023-12-20T11:54:56;5.10;99.90
39079;DHT22;24829;49.208;12.080;2023-12-20T11:57:22;5.10;99.90
39079;DHT22;24829;49.208;12.080;2023-12-20T11:59:48;5.10;99.90
39079;DHT22;24829;49.208;12.080;2023-12-20T12:02:13;5.10;99.90
39079;DHT22;24829;49.208;12.080;2023-12-20T12:04:41;5.00;99.90
39079;DHT22;24829;49.208;12.080;2023-12-20T12:07:07;5.00;99.90
39079;DHT22;24829;49.208;12.080;2023-12-20T12:09:34;5.00;99.90
39079;DHT22;24829;49.208;12.080;2023-12-20T12:12:00;5.10;99.90
39079;DHT22;24829;49.208;12.080;2023-12-20T12:14:25;5.10;99.90
39079;DHT22;24829;49.208;12.080;2023-12-20T12:16:51;5.10;99.90
39079;DHT22;24829;49.208;12.080;2023-12-20T12:19:22;5.10;99.90
39079;DHT22;24829;49.208;12.080;2023-12-20T12:21:49;5.20;99.90
39079;DHT22;24829;49.208;12.080;2023-12-20T12:24:15;5.20;99.90
39079;DHT22;24829;49.208;12.080;2023-12-20T12:26:40;5.20;99.90
39079;DHT22;24829;49.208;12.080;2023-12-20T12:29:09;5.20;99.90
39079;DHT22;24829;49.208;12.080;2023-12-20T12:31:35;5.20;99.90
39079;DHT22;24829;49.208;12.080;2023-12-20T12:34:01;5.20;99.90
39079;DHT22;24829;49.208;12.080;2023-12-20T12:36:28;5.30;99.90
39079;DHT22;24829;49.208;12.080;2023-12-20T12:38:57;5.30;99.90
39079;DHT22;24829;49.208;12.080;2023-12-20T12:41:23;5.40;99.90
39079;DHT22;24829;49.208;12.080;2023-12-20T12:43:49;5.30;99.90
39079;DHT22;24829;49.208;12.080;2023-12-20T12:46:14;5.40;99.90
39079;DHT22;24829;49.208;12.080;2023-12-20T12:48:40;5.30;99.90
39079;DHT22;24829;49.208;12.080;2023-12-20T12:51:06;5.40;99.90
39079;DHT22;24829;49.208;12.080;2023-12-20T12:53:32;5.40;99.90
39079;DHT22;24829;49.208;12.080;2023-12-20T12:55:58;5.40;99.90
39079;DHT22;24829;49.208;12.080;2023-12-20T12:58:23;5.30;99.90
39079;DHT22;24829;49.208;12.080;2023-12-20T13:00:51;5.30;99.90
39079;DHT22;24829;49.208;12.080;2023-12-20T13:03:17;5.30;99.90
39079;DHT22;24829;49.208;12.080;2023-12-20T13:05:42;5.30;99.90
39079;DHT22;24829;49.208;12.080;2023-12-20T13:08:08;5.20;99.90
39079;DHT22;24829;49.208;12.080;2023-12-20T13:10:35;5.20;99.90
39079;DHT22;24829;49.208;12.080;2023-12-20T13:13:00;5.10;99.90
39079;DHT22;24829;49.208;12.080;2023-12-20T13:15:26;5.00;99.90
39079;DHT22;24829;49.208;12.080;2023-12-20T13:17:51;5.00;99.90
39079;DHT22;24829;49.208;12.080;2023-12-20T13:20:17;5.10;99.90
39079;DHT22;24829;49.208;12.080;2023-12-20T13:22:43;5.00;99.90
39079;DHT22;24829;49.208;12.080;2023-12-20T13:25:08;5.00;99.90
39079;DHT22;24829;49.208;12.080;2023-12-20T13:27:34;4.90;99.90
39079;DHT22;24829;49.208;12.080;2023-12-20T13:29:59;4.90;99.90
39079;DHT22;24829;49.208;12.080;2023-12-20T13:32:25;4.90;99.90
39079;DHT22;24829;49.208;12.080;2023-12-20T13:34:51;4.90;99.90
39079;DHT22;24829;49.208;12.080;2023-12-20T13:37:16;4.90;99.90
39079;DHT22;24829;49.208;12.080;2023-12-20T13:39:42;4.80;99.90
39079;DHT22;24829;49.208;12.080;2023-12-20T13:42:08;4.80;99.90
39079;DHT22;24829;49.208;12.080;2023-12-20T13:44:33;4.80;99.90
39079;DHT22;24829;49.208;12.080;2023-12-20T13:46:59;4.90;99.90
39079;DHT22;24829;49.208;12.080;2023-12-20T13:49:25;4.90;99.90
39079;DHT22;24829;49.208;12.080;2023-12-20T13:51:51;4.90;99.90
39079;DHT22;24829;49.208;12.080;2023-12-20T13:54:16;4.90;99.90
39079;DHT22;24829;49.208;12.080;2023-12-20T13:56:45;4.90;99.90
39079;DHT22;24829;49.208;12.080;2023-12-20T13:59:11;4.90;99.90
39079;DHT22;24829;49.208;12.080;2023-12-20T14:01:38;4.90;99.90
39079;DHT22;24829;49.208;12.080;2023-12-20T14:04:03;4.90;99.90
39079;DHT22;24829;49.208;12.080;2023-12-20T14:06:29;4.80;99.90
39079;DHT22;24829;49.208;12.080;2023-12-20T14:08:55;4.80;99.90
39079;DHT22;24829;49.208;12.080;2023-12-20T14:11:21;4.80;99.90
39079;DHT22;24829;49.208;12.080;2023-12-20T14:13:47;4.80;99.90
39079;DHT22;24829;49.208;12.080;2023-12-20T14:16:12;4.70;99.90
39079;DHT22;24829;49.208;12.080;2023-12-20T14:18:38;4.70;99.90
39079;DHT22;24829;49.208;12.080;2023-12-20T14:21:05;4.60;99.90
39079;DHT22;24829;49.208;12.080;2023-12-20T14:23:32;4.60;99.90
39079;DHT22;24829;49.208;12.080;2023-12-20T14:25:59;4.60;99.90
39079;DHT22;24829;49.208;12.080;2023-12-20T14:28:25;4.60;99.90
39079;DHT22;24829;49.208;12.080;2023-12-20T14:30:51;4.60;99.90
39079;DHT22;24829;49.208;12.080;2023-12-20T14:33:17;4.60;99.90
39079;DHT22;24829;49.208;12.080;2023-12-20T14:35:42;4.60;99.90
39079;DHT22;24829;49.208;12.080;2023-12-20T14:38:09;4.50;99.90
39079;DHT22;24829;49.208;12.080;2023-12-20T14:40:35;4.50;99.90
39079;DHT22;24829;49.208;12.080;2023-12-20T14:43:01;4.40;99.90
39079;DHT22;24829;49.208;12.080;2023-12-20T14:45:29;4.50;99.90
39079;DHT22;24829;49.208;12.080;2023-12-20T14:47:55;4.40;99.90
39079;DHT22;24829;49.208;12.080;2023-12-20T14:50:21;4.40;99.90
39079;DHT22;24829;49.208;12.080;2023-12-20T14:52:47;4.30;99.90
39079;DHT22;24829;49.208;12.080;2023-12-20T14:55:13;4.30;99.90
39079;DHT22;24829;49.208;12.080;2023-12-20T14:57:38;4.20;99.90
39079;DHT22;24829;49.208;12.080;2023-12-20T15:00:05;4.20;99.90
39079;DHT22;24829;49.208;12.080;2023-12-20T15:02:31;4.10;99.90
39079;DHT22;24829;49.208;12.080;2023-12-20T15:04:57;4.00;99.90
39079;DHT22;24829;49.208;12.080;2023-12-20T15:07:22;3.90;99.90
39079;DHT22;24829;49.208;12.080;2023-12-20T15:09:48;3.90;99.90
39079;DHT22;24829;49.208;12.080;2023-12-20T15:12:14;3.90;99.90
39079;DHT22;24829;49.208;12.080;2023-12-20T15:14:40;3.90;99.90
39079;DHT22;24829;49.208;12.080;2023-12-20T15:17:06;3.90;99.90
39079;DHT22;24829;49.208;12.080;2023-12-20T15:19:32;3.90;99.90
39079;DHT22;24829;49.208;12.080;2023-12-20T15:21:57;3.80;99.90
39079;DHT22;24829;49.208;12.080;2023-12-20T15:24:25;3.90;99.90
39079;DHT22;24829;49.208;12.080;2023-12-20T15:27:02;3.90;99.90
39079;DHT22;24829;49.208;12.080;2023-12-20T15:29:29;3.90;99.90
39079;DHT22;24829;49.208;12.080;2023-12-20T15:31:54;3.90;99.90
39079;DHT22;24829;49.208;12.080;2023-12-20T15:34:20;4.00;99.90
39079;DHT22;24829;49.208;12.080;2023-12-20T15:36:46;4.00;99.90
39079;DHT22;24829;49.208;12.080;2023-12-20T15:39:11;4.10;99.90
39079;DHT22;24829;49.208;12.080;2023-12-20T15:41:40;4.10;99.90